Time;durP1;ratioP1;P1;durP2;ratioP2;P2;SDS_P1;SDS_P2;PMS_P1;PMS_P2;Temp;Humidity;BMP_temperature;BMP_pressure;BME280_temperature;BME280_humidity;BME280_pressure;Samples;Min_cycle;Max_cycle;Signal;HPM_P1;HPM_P2
2021/12/28 00:01:08;;;;;;;0.95;0.95;;;;;;;-9.68;83.67;99671.09;4900453;29;20067;-84
2021/12/28 00:03:37;;;;;;;1.10;1.10;;;;;;;-9.69;83.71;99670.28;4892832;29;20049;-85
2021/12/28 00:06:05;;;;;;;1.10;1.10;;;;;;;-9.67;83.70;99672.78;4899965;29;20084;-83
2021/12/28 00:08:35;;;;;;;0.88;0.88;;;;;;;-9.67;83.66;99678.00;4899536;29;20056;-85
2021/12/28 00:11:03;;;;;;;1.00;1.00;;;;;;;-9.69;83.84;99678.13;4910715;29;20029;-84
2021/12/28 00:13:32;;;;;;;1.10;1.10;;;;;;;-9.68;83.95;99676.34;4923577;29;20029;-85
2021/12/28 00:17:58;;;;;;;1.00;1.00;;;;;;;-9.66;83.99;99677.91;4907240;29;20056;-84
2021/12/28 00:18:48;;;;;;;1.10;1.10;;;;;;;-9.67;83.88;99681.47;4900887;29;20087;-85
2021/12/28 00:21:15;;;;;;;1.10;1.10;;;;;;;-9.65;83.75;99682.19;4907691;29;20052;-84
2021/12/28 00:23:42;;;;;;;1.00;1.00;;;;;;;-9.59;83.37;99686.19;4905462;29;20059;-85
2021/12/28 00:26:12;;;;;;;1.00;1.00;;;;;;;-9.67;83.28;99684.09;4900980;29;20049;-84
2021/12/28 00:28:40;;;;;;;1.00;1.00;;;;;;;-9.68;83.19;99687.63;4847770;29;20132;-85
2021/12/28 00:31:07;;;;;;;1.02;1.02;;;;;;;-9.64;83.18;99689.09;4896651;29;20060;-84
2021/12/28 00:33:34;;;;;;;1.10;1.10;;;;;;;-9.63;82.92;99684.72;4899166;29;20060;-85
2021/12/28 00:36:02;;;;;;;1.02;1.02;;;;;;;-9.64;83.02;99694.34;4882663;29;20179;-85
2021/12/28 00:38:29;;;;;;;1.33;1.23;;;;;;;-9.70;82.81;99704.31;4898434;29;20064;-85
2021/12/28 00:40:59;;;;;;;1.02;1.02;;;;;;;-9.70;82.81;99699.09;4898811;29;20068;-85
2021/12/28 00:43:30;;;;;;;0.82;0.82;;;;;;;-9.70;82.62;99686.03;4899011;29;20064;-85
2021/12/28 00:45:57;;;;;;;1.25;1.15;;;;;;;-9.77;82.65;99689.97;4898657;29;20053;-84
2021/12/28 00:48:24;;;;;;;1.00;1.00;;;;;;;-9.82;82.76;99695.53;4866334;29;20087;-85
2021/12/28 00:50:52;;;;;;;1.05;1.05;;;;;;;-9.75;82.59;99690.72;4867204;29;20488;-85
2021/12/28 00:53:20;;;;;;;1.20;1.10;;;;;;;-9.72;82.62;99685.28;4899032;29;20081;-83
2021/12/28 00:55:47;;;;;;;0.90;0.90;;;;;;;-9.78;82.66;99691.75;4899052;29;20482;-84
2021/12/28 00:58:14;;;;;;;0.90;0.90;;;;;;;-9.82;82.66;99688.53;4882675;29;20052;-83
2021/12/28 01:00:42;;;;;;;1.10;1.10;;;;;;;-9.81;82.82;99682.34;4909032;29;20215;-84
2021/12/28 01:03:09;;;;;;;1.30;1.20;;;;;;;-9.76;82.54;99678.63;4900677;29;20076;-84
2021/12/28 01:05:37;;;;;;;0.98;0.98;;;;;;;-9.72;82.49;99691.38;4898284;29;20085;-84
2021/12/28 01:08:06;;;;;;;1.10;1.10;;;;;;;-9.76;82.46;99687.28;4898543;29;20516;-84
2021/12/28 01:10:37;;;;;;;1.00;1.00;;;;;;;-9.75;82.58;99693.34;4898099;29;20052;-83
2021/12/28 01:13:05;;;;;;;0.98;0.98;;;;;;;-9.74;82.59;99692.41;4897618;29;20427;-85
2021/12/28 01:15:32;;;;;;;1.00;1.00;;;;;;;-9.76;82.86;99689.06;4893138;29;20516;-84
2021/12/28 01:18:00;;;;;;;1.10;1.10;;;;;;;-9.73;82.75;99697.53;4879548;29;20076;-83
2021/12/28 01:20:28;;;;;;;1.10;1.10;;;;;;;-9.73;83.04;99697.53;4878435;29;20049;-85
2021/12/28 01:22:56;;;;;;;0.90;0.90;;;;;;;-9.77;82.85;99693.47;4863266;29;20148;-84
2021/12/28 01:25:23;;;;;;;1.00;1.00;;;;;;;-9.72;83.13;99703.59;4879887;29;20098;-84
2021/12/28 01:27:51;;;;;;;1.17;1.13;;;;;;;-9.69;83.06;99706.03;4879890;29;20519;-84
2021/12/28 01:30:20;;;;;;;1.15;1.10;;;;;;;-9.74;82.83;99708.94;4879192;29;20053;-84
2021/12/28 01:32:48;;;;;;;1.05;1.05;;;;;;;-9.80;83.20;99709.31;4879546;29;20501;-83
2021/12/28 01:35:16;;;;;;;1.08;1.08;;;;;;;-9.75;83.16;99711.63;4879376;29;20440;-85
2021/12/28 01:37:44;;;;;;;1.05;1.05;;;;;;;-9.67;83.27;99725.03;4879394;29;20156;-84
2021/12/28 01:40:19;;;;;;;1.30;1.20;;;;;;;-9.63;83.09;99729.97;4863043;29;20140;-84
2021/12/28 01:43:20;;;;;;;1.00;1.00;;;;;;;-9.67;82.55;99722.41;4879069;29;20048;-84
2021/12/28 01:45:56;;;;;;;0.90;0.90;;;;;;;-9.72;82.78;99730.56;4803012;29;20051;-84
2021/12/28 01:48:26;;;;;;;1.10;1.10;;;;;;;-9.71;82.67;99724.41;4803196;29;20080;-84
2021/12/28 01:50:56;;;;;;;1.10;1.10;;;;;;;-9.65;82.42;99729.22;4803331;29;20570;-84
2021/12/28 01:53:26;;;;;;;0.70;0.70;;;;;;;-9.61;82.52;99737.72;4807194;29;20050;-84
2021/12/28 01:55:55;;;;;;;0.93;0.93;;;;;;;-9.60;82.20;99732.38;4821467;29;20082;-84
2021/12/28 01:58:22;;;;;;;1.10;1.10;;;;;;;-9.65;82.09;99734.44;4806041;29;20512;-84
2021/12/28 02:00:50;;;;;;;0.98;0.98;;;;;;;-9.65;82.23;99731.84;4821618;29;20104;-84
2021/12/28 02:03:20;;;;;;;1.17;1.13;;;;;;;-9.57;81.97;99730.50;4821383;29;20153;-83
2021/12/28 02:05:48;;;;;;;1.05;1.05;;;;;;;-9.57;81.78;99728.72;4821544;29;20085;-83
2021/12/28 02:08:15;;;;;;;0.95;0.95;;;;;;;-9.55;81.97;99728.63;4821463;29;20050;-84
2021/12/28 02:10:45;;;;;;;1.25;1.20;;;;;;;-9.62;81.87;99730.78;4821295;29;20058;-84
2021/12/28 02:13:12;;;;;;;1.10;1.10;;;;;;;-9.68;82.06;99729.41;4821074;29;20179;-84
2021/12/28 02:15:40;;;;;;;1.02;1.02;;;;;;;-9.67;82.11;99736.34;4803011;29;20586;-85
2021/12/28 02:18:09;;;;;;;1.00;1.00;;;;;;;-9.70;82.38;99735.69;4803218;29;20096;-85
2021/12/28 02:20:36;;;;;;;1.10;1.10;;;;;;;-9.66;82.24;99737.19;4773661;29;20191;-84
2021/12/28 02:23:04;;;;;;;1.10;1.10;;;;;;;-9.58;81.75;99741.91;4868916;29;20573;-84
2021/12/28 02:25:32;;;;;;;0.80;0.80;;;;;;;-9.57;81.74;99752.25;4878333;29;20060;-84
2021/12/28 02:27:59;;;;;;;0.88;0.88;;;;;;;-9.53;81.42;99758.13;4878629;29;20085;-84
2021/12/28 02:30:27;;;;;;;1.00;1.00;;;;;;;-9.50;81.48;99752.69;4861752;29;20214;-84
2021/12/28 02:32:56;;;;;;;1.10;1.10;;;;;;;-9.49;81.43;99751.78;4861746;29;20051;-84
2021/12/28 02:35:25;;;;;;;0.93;0.93;;;;;;;-9.45;81.22;99758.47;4887919;29;20119;-84
2021/12/28 02:37:53;;;;;;;0.90;0.90;;;;;;;-9.47;80.88;99752.50;4896224;29;20053;-84
2021/12/28 02:40:23;;;;;;;1.00;1.00;;;;;;;-9.47;80.91;99760.34;4896328;29;20049;-83
2021/12/28 02:42:55;;;;;;;1.30;1.20;;;;;;;-9.44;80.58;99765.38;4897125;29;20056;-85
2021/12/28 02:45:27;;;;;;;0.80;0.80;;;;;;;-9.49;80.51;99764.84;4896893;29;20163;-85
2021/12/28 02:47:54;;;;;;;0.82;0.82;;;;;;;-9.53;80.57;99771.19;4897052;29;20433;-85
2021/12/28 02:50:49;;;;;;;0.95;0.95;;;;;;;-9.50;80.53;99771.00;4897278;29;20080;-85
2021/12/28 02:53:18;;;;;;;1.20;1.15;;;;;;;-9.48;80.50;99763.91;4894792;29;20327;-83
2021/12/28 02:55:47;;;;;;;1.10;1.10;;;;;;;-9.49;80.69;99765.69;4879928;29;20433;-84
2021/12/28 02:58:35;;;;;;;1.00;1.00;;;;;;;-9.46;80.70;99770.69;4880185;29;20092;-83
2021/12/28 03:01:15;;;;;;;1.08;1.08;;;;;;;-9.45;81.11;99763.69;4897114;29;20057;-83
2021/12/28 03:03:43;;;;;;;0.90;0.90;;;;;;;-9.49;81.38;99770.91;4894689;29;20091;-86
2021/12/28 03:06:13;;;;;;;0.80;0.80;;;;;;;-9.49;81.72;99775.31;4895829;29;20083;-87
2021/12/28 03:08:43;;;;;;;1.00;1.00;;;;;;;-9.50;82.08;99771.81;4893595;29;20077;-85
2021/12/28 03:11:11;;;;;;;0.90;0.90;;;;;;;-9.51;82.16;99771.94;4886229;29;20091;-87
2021/12/28 03:13:47;;;;;;;1.10;1.10;;;;;;;-9.55;82.01;99771.28;4884829;29;20526;-86
2021/12/28 03:16:16;;;;;;;0.90;0.90;;;;;;;-9.55;82.45;99776.50;4885878;29;20057;-86
2021/12/28 03:18:44;;;;;;;1.00;1.00;;;;;;;-9.52;82.46;99781.56;4886611;29;20147;-86
2021/12/28 03:21:12;;;;;;;0.90;0.90;;;;;;;-9.50;82.62;99773.59;4881327;29;20056;-85
2021/12/28 03:23:41;;;;;;;0.80;0.80;;;;;;;-9.47;82.54;99769.03;4896220;29;20060;-84
2021/12/28 03:26:09;;;;;;;0.90;0.90;;;;;;;-9.51;82.50;99780.63;4897109;29;20068;-86
2021/12/28 03:28:41;;;;;;;1.10;1.10;;;;;;;-9.53;82.65;99781.66;4864584;29;20052;-83
2021/12/28 03:31:11;;;;;;;0.88;0.88;;;;;;;-9.55;82.63;99766.06;4897380;29;20056;-82
2021/12/28 03:33:41;;;;;;;0.80;0.80;;;;;;;-9.54;82.86;99766.88;4879946;29;20082;-81
2021/12/28 03:36:09;;;;;;;1.00;1.00;;;;;;;-9.62;82.68;99760.41;4879458;29;20100;-82
2021/12/28 03:38:38;;;;;;;1.05;1.05;;;;;;;-9.72;83.21;99766.28;4895454;29;20120;-83
2021/12/28 03:41:08;;;;;;;0.95;0.95;;;;;;;-9.88;83.17;99774.25;4896346;29;20511;-82
2021/12/28 03:43:40;;;;;;;0.80;0.80;;;;;;;-10.06;83.40;99766.63;4896356;29;20081;-80
2021/12/28 03:46:08;;;;;;;1.02;1.02;;;;;;;-10.30;84.23;99768.19;4892654;29;20067;-82
2021/12/28 03:48:36;;;;;;;1.10;1.10;;;;;;;-10.45;84.85;99779.56;4889979;29;20600;-82
2021/12/28 03:51:03;;;;;;;0.90;0.90;;;;;;;-10.35;85.54;99778.06;4892290;29;20611;-81
2021/12/28 03:53:31;;;;;;;1.08;1.08;;;;;;;-10.15;85.49;99788.09;4878735;29;20096;-82
2021/12/28 03:55:58;;;;;;;0.80;0.80;;;;;;;-9.99;85.42;99784.53;4877953;29;20468;-82
2021/12/28 03:58:25;;;;;;;0.80;0.80;;;;;;;-9.88;85.14;99789.94;4877009;29;20060;-80
2021/12/28 04:00:52;;;;;;;1.10;1.10;;;;;;;-9.79;84.88;99793.75;4881140;29;20052;-82
2021/12/28 04:03:20;;;;;;;1.00;1.00;;;;;;;-9.73;84.77;99783.75;4873412;29;20060;-85
2021/12/28 04:05:47;;;;;;;1.10;1.10;;;;;;;-9.75;84.59;99783.00;4558719;29;10000438;-81
2021/12/28 04:08:20;;;;;;;0.93;0.93;;;;;;;-9.70;84.74;99786.16;4898357;29;20075;-82
2021/12/28 04:11:01;;;;;;;0.90;0.90;;;;;;;-9.65;84.65;99786.69;4907662;29;20055;-81
2021/12/28 04:13:29;;;;;;;0.90;0.90;;;;;;;-9.61;84.72;99785.59;4886041;29;20061;-84
2021/12/28 04:15:56;;;;;;;0.95;0.95;;;;;;;-9.52;84.48;99788.53;4899683;29;20122;-83
2021/12/28 04:18:23;;;;;;;0.85;0.85;;;;;;;-9.52;84.21;99789.41;4899307;29;20058;-83
2021/12/28 04:20:51;;;;;;;0.90;0.90;;;;;;;-9.54;84.36;99788.66;4899082;29;20074;-83
2021/12/28 04:23:18;;;;;;;0.93;0.93;;;;;;;-9.50;84.50;99784.06;4899398;29;20464;-83
2021/12/28 04:25:45;;;;;;;0.82;0.82;;;;;;;-9.48;84.36;99783.03;4898744;29;20052;-82
2021/12/28 04:28:12;;;;;;;1.13;1.13;;;;;;;-9.39;84.00;99792.91;4898774;29;20053;-83
2021/12/28 04:30:39;;;;;;;1.00;1.00;;;;;;;-9.32;83.77;99792.50;4898622;29;20116;-83
2021/12/28 04:33:06;;;;;;;1.00;1.00;;;;;;;-9.31;83.62;99795.03;4898777;29;20056;-83
2021/12/28 04:35:34;;;;;;;1.05;1.05;;;;;;;-9.29;83.21;99793.16;4874229;29;20052;-83
2021/12/28 04:38:01;;;;;;;0.98;0.98;;;;;;;-9.29;83.20;99803.63;4901207;29;20056;-84
2021/12/28 04:40:29;;;;;;;0.90;0.90;;;;;;;-9.33;83.22;99802.13;4901397;29;20652;-84
2021/12/28 04:42:56;;;;;;;1.00;1.00;;;;;;;-9.42;83.71;99805.31;4898654;29;20064;-83
2021/12/28 04:45:23;;;;;;;0.95;0.95;;;;;;;-9.39;83.46;99808.59;4899000;29;20104;-83
2021/12/28 04:47:50;;;;;;;0.90;0.90;;;;;;;-9.39;83.48;99808.59;4898888;29;20464;-83
2021/12/28 04:50:17;;;;;;;0.80;0.80;;;;;;;-9.44;83.45;99810.66;4899021;29;20147;-82
2021/12/28 04:52:49;;;;;;;1.00;1.00;;;;;;;-9.35;83.31;99814.44;4882284;29;20056;-83
2021/12/28 04:55:18;;;;;;;0.90;0.90;;;;;;;-9.38;83.10;99809.41;4859668;29;20079;-83
2021/12/28 04:57:46;;;;;;;0.90;0.90;;;;;;;-9.34;83.14;99810.91;4909030;29;20060;-83
2021/12/28 05:00:17;;;;;;;1.00;1.00;;;;;;;-9.37;82.91;99816.31;4910462;29;20052;-83
2021/12/28 05:02:45;;;;;;;0.90;0.90;;;;;;;-9.33;82.71;99823.03;4906894;29;20194;-83
2021/12/28 05:05:14;;;;;;;1.10;1.10;;;;;;;-9.29;83.00;99818.44;4898167;29;20059;-83
2021/12/28 05:07:41;;;;;;;0.85;0.85;;;;;;;-9.30;82.83;99833.28;4897958;29;20080;-83
2021/12/28 05:10:09;;;;;;;0.93;0.93;;;;;;;-9.28;82.81;99828.81;4897798;29;20076;-83
2021/12/28 05:12:36;;;;;;;0.70;0.70;;;;;;;-9.27;82.68;99832.25;4896708;29;20146;-84
2021/12/28 05:15:04;;;;;;;0.80;0.80;;;;;;;-9.25;82.82;99833.84;4898340;29;20081;-84
2021/12/28 05:17:32;;;;;;;0.90;0.90;;;;;;;-9.23;82.58;99839.81;4898144;29;20103;-83
2021/12/28 05:19:59;;;;;;;1.00;1.00;;;;;;;-9.20;82.78;99851.84;4897846;29;20083;-82
2021/12/28 05:22:26;;;;;;;1.30;1.20;;;;;;;-9.20;82.54;99847.44;4897877;29;20061;-82
2021/12/28 05:24:53;;;;;;;1.30;1.20;;;;;;;-9.16;82.82;99858.56;4897904;29;20428;-81
2021/12/28 05:27:21;;;;;;;0.60;0.60;;;;;;;-9.18;82.73;99860.44;4898146;29;20505;-83
2021/12/28 05:29:48;;;;;;;1.30;1.20;;;;;;;-9.17;82.88;99849.03;4897460;29;20124;-83
2021/12/28 05:32:16;;;;;;;1.00;1.00;;;;;;;-9.05;82.56;99857.88;4897842;29;20048;-82
2021/12/28 05:34:43;;;;;;;0.77;0.77;;;;;;;-9.02;82.07;99862.91;4880683;29;20089;-84
2021/12/28 05:37:15;;;;;;;0.90;0.90;;;;;;;-8.99;82.22;99867.94;4897463;29;20048;-84
2021/12/28 05:39:43;;;;;;;0.65;0.65;;;;;;;-8.99;81.90;99865.31;4897414;29;20081;-83
2021/12/28 05:42:10;;;;;;;0.70;0.70;;;;;;;-8.96;81.61;99873.81;4893954;29;20769;-82
2021/12/28 05:44:37;;;;;;;0.80;0.80;;;;;;;-8.93;81.29;99871.94;4896363;29;20115;-83
2021/12/28 05:47:05;;;;;;;1.00;1.00;;;;;;;-9.03;81.25;99867.31;4896970;29;20536;-83
2021/12/28 05:49:32;;;;;;;0.70;0.70;;;;;;;-9.02;81.26;99874.19;4890121;29;20104;-83
2021/12/28 05:51:59;;;;;;;0.90;0.90;;;;;;;-9.01;80.85;99869.84;4880816;29;20139;-83
2021/12/28 05:54:26;;;;;;;1.15;1.10;;;;;;;-9.00;80.42;99872.31;4895595;29;20148;-82
2021/12/28 05:56:53;;;;;;;1.05;1.05;;;;;;;-8.99;80.18;99873.16;4897159;29;20135;-84
2021/12/28 05:59:20;;;;;;;0.90;0.90;;;;;;;-8.92;79.65;99869.22;4896610;29;20469;-83
2021/12/28 06:01:48;;;;;;;0.65;0.65;;;;;;;-8.93;79.78;99872.78;4896654;29;20056;-83
2021/12/28 06:04:16;;;;;;;0.80;0.80;;;;;;;-8.96;79.79;99873.00;4899074;29;20072;-84
2021/12/28 06:06:43;;;;;;;0.75;0.75;;;;;;;-8.93;79.53;99880.63;4916718;29;20053;-84
2021/12/28 06:09:10;;;;;;;0.90;0.90;;;;;;;-8.88;79.20;99878.56;4579601;29;9999851;-84
2021/12/28 06:11:41;;;;;;;0.98;0.98;;;;;;;-8.84;79.15;99877.41;4904252;29;20064;-83
2021/12/28 06:14:08;;;;;;;0.90;0.90;;;;;;;-8.82;79.33;99872.91;4895663;29;20434;-82
2021/12/28 06:16:35;;;;;;;1.10;1.10;;;;;;;-8.84;79.87;99877.41;4898361;29;20076;-85
2021/12/28 06:19:03;;;;;;;0.82;0.82;;;;;;;-8.86;80.03;99874.06;4896974;29;20584;-83
2021/12/28 06:21:31;;;;;;;0.90;0.90;;;;;;;-8.84;80.12;99877.41;4894008;29;20052;-84
2021/12/28 06:23:59;;;;;;;1.10;1.10;;;;;;;-8.84;80.18;99884.41;4892454;29;20048;-84
2021/12/28 06:26:27;;;;;;;0.80;0.80;;;;;;;-8.85;80.35;99878.34;4894043;29;20052;-83
2021/12/28 06:28:55;;;;;;;1.00;1.00;;;;;;;-8.81;80.45;99877.22;4894212;29;20051;-83
2021/12/28 06:31:22;;;;;;;0.80;0.80;;;;;;;-8.79;79.85;99883.16;4894311;29;20052;-83
2021/12/28 06:33:49;;;;;;;0.90;0.90;;;;;;;-8.75;79.61;99881.22;4875709;29;20586;-81
2021/12/28 06:36:16;;;;;;;1.02;1.02;;;;;;;-8.76;79.39;99885.63;4892994;29;20056;-82
2021/12/28 06:38:44;;;;;;;0.70;0.70;;;;;;;-8.79;79.33;99891.03;4893002;29;20503;-83
2021/12/28 06:41:11;;;;;;;0.95;0.95;;;;;;;-8.81;79.42;99898.16;4891033;29;20048;-84
2021/12/28 06:43:38;;;;;;;1.00;1.00;;;;;;;-8.83;79.38;99896.56;4892799;29;20117;-82
2021/12/28 06:46:05;;;;;;;0.90;0.90;;;;;;;-8.89;79.62;99908.25;4892390;29;20085;-82
2021/12/28 06:48:32;;;;;;;0.80;0.80;;;;;;;-8.86;79.89;99907.22;4892387;29;20187;-81
2021/12/28 06:51:00;;;;;;;0.90;0.90;;;;;;;-8.81;79.86;99903.38;4892653;29;20155;-83
2021/12/28 06:53:27;;;;;;;1.10;1.10;;;;;;;-8.75;80.17;99910.00;4890452;29;20619;-83
2021/12/28 06:55:54;;;;;;;0.85;0.85;;;;;;;-8.77;79.85;99912.69;4888511;29;20059;-83
2021/12/28 06:58:22;;;;;;;0.90;0.90;;;;;;;-8.74;80.05;99920.34;4871023;29;20536;-83
2021/12/28 07:00:51;;;;;;;0.80;0.80;;;;;;;-8.72;79.85;99931.56;4890015;29;20476;-84
2021/12/28 07:03:18;;;;;;;0.98;0.98;;;;;;;-8.68;79.86;99923.50;4894004;29;20067;-82
2021/12/28 07:05:45;;;;;;;0.98;0.98;;;;;;;-8.67;79.85;99926.03;4553729;29;10000182;-83
2021/12/28 07:08:14;;;;;;;1.00;1.00;;;;;;;-8.65;80.18;99925.94;4896557;29;20087;-80
2021/12/28 07:10:42;;;;;;;0.70;0.70;;;;;;;-8.59;79.78;99925.53;4895610;29;20056;-81
2021/12/28 07:13:10;;;;;;;0.70;0.70;;;;;;;-8.57;79.55;99923.66;4889848;29;20509;-85
2021/12/28 07:15:37;;;;;;;0.70;0.70;;;;;;;-8.59;79.77;99922.91;4836448;29;20257;-85
2021/12/28 07:18:04;;;;;;;1.00;1.00;;;;;;;-8.63;79.16;99921.44;4861996;29;20500;-84
2021/12/28 07:20:31;;;;;;;0.82;0.82;;;;;;;-8.65;79.28;99920.72;4877846;29;20049;-85
2021/12/28 07:22:58;;;;;;;0.77;0.77;;;;;;;-8.62;79.62;99929.19;4878991;29;20099;-85
2021/12/28 07:25:25;;;;;;;0.70;0.70;;;;;;;-8.63;79.41;99932.75;4883764;29;20506;-86
2021/12/28 07:27:52;;;;;;;0.90;0.90;;;;;;;-8.58;79.28;99935.06;4880834;29;20048;-85
2021/12/28 07:30:19;;;;;;;1.00;1.00;;;;;;;-8.58;79.35;99937.66;4881878;29;20104;-85
2021/12/28 07:32:47;;;;;;;1.00;1.00;;;;;;;-8.58;79.36;99940.28;4865180;29;20057;-84
2021/12/28 07:35:14;;;;;;;0.95;0.95;;;;;;;-8.51;79.29;99947.69;4881266;29;20543;-84
2021/12/28 07:37:42;;;;;;;0.90;0.90;;;;;;;-8.48;79.36;99951.88;4864823;29;20069;-85
2021/12/28 07:40:10;;;;;;;0.90;0.90;;;;;;;-8.47;78.92;99947.47;4881618;29;20088;-85
2021/12/28 07:42:38;;;;;;;0.80;0.80;;;;;;;-8.45;78.75;99948.22;4881409;29;20489;-85
2021/12/28 07:45:09;;;;;;;0.80;0.80;;;;;;;-8.53;78.69;99957.41;4881249;29;20118;-85
2021/12/28 07:47:36;;;;;;;0.88;0.88;;;;;;;-8.52;78.82;99960.84;4881236;29;20056;-86
2021/12/28 07:50:07;;;;;;;0.90;0.90;;;;;;;-8.51;78.98;99962.50;4849628;29;20117;-86
2021/12/28 07:52:34;;;;;;;1.00;1.00;;;;;;;-8.54;79.11;99952.25;4881100;29;20163;-85
2021/12/28 07:55:04;;;;;;;0.90;0.90;;;;;;;-8.37;79.29;99965.06;4880860;29;20055;-84
2021/12/28 07:57:31;;;;;;;0.90;0.90;;;;;;;-8.36;79.18;99955.41;4883885;29;20065;-85
2021/12/28 07:59:59;;;;;;;0.95;0.95;;;;;;;-8.27;79.30;99956.59;4884820;29;20508;-84
2021/12/28 08:02:26;;;;;;;0.90;0.90;;;;;;;-8.21;78.59;99964.03;4883963;29;20061;-86
2021/12/28 08:04:53;;;;;;;1.08;1.08;;;;;;;-8.18;78.94;99953.34;4881147;29;20402;-86
2021/12/28 08:07:20;;;;;;;0.80;0.80;;;;;;;-8.19;78.94;99959.53;4880631;29;20080;-85
2021/12/28 08:09:47;;;;;;;0.90;0.90;;;;;;;-8.15;78.72;99961.88;4880147;29;20067;-85
2021/12/28 08:12:14;;;;;;;1.10;1.10;;;;;;;-8.02;78.62;99954.03;4880385;29;20103;-86
2021/12/28 08:14:42;;;;;;;0.93;0.93;;;;;;;-7.99;78.33;99963.47;4882710;29;20458;-85
2021/12/28 08:17:09;;;;;;;1.00;1.00;;;;;;;-8.02;78.12;99951.41;4884139;29;20053;-85
2021/12/28 08:19:37;;;;;;;0.90;0.90;;;;;;;-7.93;78.46;99955.19;4880915;29;20060;-85
2021/12/28 08:22:05;;;;;;;1.00;1.00;;;;;;;-7.86;78.25;99962.53;4881091;29;20052;-86
2021/12/28 08:24:34;;;;;;;1.08;1.08;;;;;;;-7.78;78.41;99958.53;4880332;29;20063;-86
2021/12/28 08:27:01;;;;;;;1.00;1.00;;;;;;;-7.73;78.07;99959.06;4880521;29;20068;-86
2021/12/28 08:29:28;;;;;;;1.00;1.00;;;;;;;-7.73;77.83;99959.91;4880405;29;20064;-86
2021/12/28 08:31:56;;;;;;;0.93;0.93;;;;;;;-7.70;77.88;99958.84;4880294;29;20118;-86
2021/12/28 08:34:23;;;;;;;0.80;0.80;;;;;;;-7.74;77.88;99957.41;4882831;29;20080;-86
2021/12/28 08:36:50;;;;;;;1.00;1.00;;;;;;;-7.68;77.90;99967.47;4880325;29;20497;-83
2021/12/28 08:39:17;;;;;;;1.00;1.00;;;;;;;-7.67;77.46;99971.75;4878715;29;20088;-85
2021/12/28 08:41:45;;;;;;;0.80;0.80;;;;;;;-7.64;77.55;99958.44;4880221;29;20075;-85
2021/12/28 08:44:12;;;;;;;0.90;0.90;;;;;;;-7.49;77.59;99960.03;4848064;29;20127;-85
2021/12/28 08:46:39;;;;;;;0.80;0.80;;;;;;;-7.38;77.12;99966.31;4879829;29;20076;-87
2021/12/28 08:49:06;;;;;;;0.90;0.90;;;;;;;-7.33;76.93;99957.16;4882729;29;20132;-86
2021/12/28 08:51:33;;;;;;;0.90;0.90;;;;;;;-7.27;77.25;99953.25;4881248;29;20125;-86
2021/12/28 08:54:00;;;;;;;1.00;1.00;;;;;;;-7.27;76.64;99948.00;4880257;29;20049;-86
2021/12/28 08:56:29;;;;;;;0.75;0.75;;;;;;;-7.24;76.77;99940.78;4880124;29;20049;-86
2021/12/28 08:58:56;;;;;;;0.88;0.88;;;;;;;-7.10;76.32;99946.84;4863716;29;20097;-85
2021/12/28 09:01:23;;;;;;;1.10;1.10;;;;;;;-7.07;75.98;99957.09;4869222;29;20053;-85
2021/12/28 09:03:52;;;;;;;0.95;0.95;;;;;;;-7.00;75.90;99951.31;4880714;29;20053;-86
2021/12/28 09:06:20;;;;;;;0.90;0.90;;;;;;;-6.92;75.81;99948.13;4880364;29;20132;-86
2021/12/28 09:08:47;;;;;;;0.93;0.93;;;;;;;-6.87;75.74;99958.31;4880250;29;20057;-86
2021/12/28 09:11:14;;;;;;;0.70;0.70;;;;;;;-6.80;75.68;99949.06;4881546;29;20109;-85
2021/12/28 09:13:41;;;;;;;0.80;0.80;;;;;;;-6.80;75.63;99956.94;4879885;29;20060;-86
2021/12/28 09:16:09;;;;;;;0.95;0.95;;;;;;;-6.88;75.44;99961.91;4879557;29;20135;-82
2021/12/28 09:18:36;;;;;;;1.00;1.00;;;;;;;-6.49;74.75;99962.59;4907792;29;20072;-83
2021/12/28 09:21:04;;;;;;;0.95;0.95;;;;;;;-6.65;74.83;99957.63;4896132;29;20082;-84
2021/12/28 09:23:31;;;;;;;0.73;0.73;;;;;;;-6.63;74.84;99966.22;4893900;29;20057;-86
2021/12/28 09:26:18;;;;;;;0.98;0.98;;;;;;;-6.81;74.97;99961.34;4896211;29;20131;-86
2021/12/28 09:28:45;;;;;;;0.85;0.85;;;;;;;-6.86;75.22;99963.47;4896519;29;20133;-85
2021/12/28 09:31:12;;;;;;;0.85;0.85;;;;;;;-6.93;75.11;99977.13;4894767;29;20158;-87
2021/12/28 09:33:40;;;;;;;0.75;0.75;;;;;;;-7.04;75.86;99972.63;4899328;29;20081;-85
2021/12/28 09:36:12;;;;;;;0.93;0.93;;;;;;;-7.11;76.16;99974.03;4899430;29;20064;-86
2021/12/28 09:38:41;;;;;;;0.77;0.77;;;;;;;-7.06;76.32;99967.50;4880537;29;20052;-84
2021/12/28 09:41:08;;;;;;;0.77;0.77;;;;;;;-7.15;76.14;99972.56;4881150;29;20048;-84
2021/12/28 09:43:37;;;;;;;0.80;0.80;;;;;;;-7.20;76.39;99973.72;4877294;29;20076;-85
2021/12/28 09:46:04;;;;;;;0.93;0.93;;;;;;;-7.24;76.62;99967.03;4880292;29;20059;-83
2021/12/28 09:48:32;;;;;;;0.80;0.80;;;;;;;-7.05;76.62;99974.41;4553624;29;10000441;-84
2021/12/28 09:50:59;;;;;;;0.70;0.70;;;;;;;-7.07;76.33;99968.44;4893373;29;20144;-84
2021/12/28 09:53:27;;;;;;;0.73;0.73;;;;;;;-7.05;76.14;99976.22;4892832;29;20582;-84
2021/12/28 09:55:54;;;;;;;0.82;0.82;;;;;;;-7.01;75.92;99980.31;4891281;29;20556;-84
2021/12/28 09:58:24;;;;;;;0.88;0.88;;;;;;;-6.98;75.75;99972.22;4893662;29;20495;-86
2021/12/28 10:01:08;;;;;;;0.95;0.95;;;;;;;-6.95;75.75;99976.41;4879086;29;20072;-85
2021/12/28 10:03:36;;;;;;;1.00;1.00;;;;;;;-6.83;75.66;99978.16;4894133;29;20075;-85
2021/12/28 10:06:15;;;;;;;1.33;1.23;;;;;;;-5.30;73.66;99985.06;4878213;29;20087;-83
2021/12/28 10:08:43;;;;;;;0.80;0.80;;;;;;;-4.41;69.68;99971.91;4899027;29;20060;-86
2021/12/28 10:11:10;;;;;;;0.70;0.70;;;;;;;-5.14;69.23;99978.63;4894383;29;20045;-90
2021/12/28 10:13:38;;;;;;;0.70;0.70;;;;;;;-5.84;70.87;99977.00;4895721;29;20056;-85
2021/12/28 10:16:05;;;;;;;0.90;0.90;;;;;;;-6.11;71.93;99986.84;4869711;29;20564;-88
2021/12/28 10:18:32;;;;;;;0.75;0.75;;;;;;;-6.39;72.84;99976.72;4888200;29;20044;-88
2021/12/28 10:21:01;;;;;;;0.95;0.95;;;;;;;-6.56;73.37;99989.31;4895470;29;20527;-87
2021/12/28 10:23:31;;;;;;;0.85;0.85;;;;;;;-6.58;73.90;99979.88;4893920;29;20101;-87
2021/12/28 10:26:08;;;;;;;0.75;0.75;;;;;;;-6.87;74.60;99989.81;4848677;29;20080;-85
2021/12/28 10:28:39;;;;;;;0.80;0.80;;;;;;;-6.95;75.13;99985.09;4899293;29;20057;-86
2021/12/28 10:31:18;;;;;;;0.70;0.70;;;;;;;-6.79;75.30;99995.34;4880833;29;20469;-86
2021/12/28 10:33:46;;;;;;;0.93;0.93;;;;;;;-6.98;75.12;99994.03;4895884;29;20060;-86
2021/12/28 10:36:15;;;;;;;0.60;0.60;;;;;;;-6.90;75.57;100000.53;4897155;29;20060;-85
2021/12/28 10:38:49;;;;;;;1.00;1.00;;;;;;;-6.65;75.09;100004.88;4889090;29;20139;-85
2021/12/28 10:41:19;;;;;;;0.80;0.80;;;;;;;-6.53;74.46;100006.63;4881196;29;20408;-86
2021/12/28 10:43:50;;;;;;;1.40;1.30;;;;;;;-5.00;72.47;100007.34;4896537;29;20087;-86
2021/12/28 10:46:20;;;;;;;1.50;1.40;;;;;;;-3.25;68.26;99995.63;4867949;29;20058;-87
2021/12/28 10:48:57;;;;;;;1.05;1.05;;;;;;;-1.81;63.58;99996.06;4880176;29;20667;-85
2021/12/28 10:51:34;;;;;;;0.90;0.90;;;;;;;-3.24;64.23;99993.81;4881750;29;20492;-86
2021/12/28 10:54:14;;;;;;;1.30;1.20;;;;;;;-3.17;65.54;99990.50;4900446;29;20096;-84
2021/12/28 10:56:50;;;;;;;1.00;1.00;;;;;;;-3.11;64.50;99987.38;4874206;29;20059;-87
2021/12/28 10:59:24;;;;;;;0.90;0.90;;;;;;;-3.66;64.82;99993.88;4899474;29;20068;-85
2021/12/28 11:01:52;;;;;;;0.70;0.70;;;;;;;-4.92;67.45;100006.75;4881304;29;20052;-84
2021/12/28 11:04:35;;;;;;;0.70;0.70;;;;;;;-5.45;69.63;99996.78;4897590;29;20192;-83
2021/12/28 11:07:05;;;;;;;0.60;0.60;;;;;;;-5.82;70.55;100007.50;4872943;29;20059;-86
2021/12/28 11:09:32;;;;;;;0.70;0.70;;;;;;;-5.80;70.85;100002.94;4892353;29;20093;-84
2021/12/28 11:11:59;;;;;;;0.90;0.90;;;;;;;-6.01;71.93;100012.47;4899064;29;20055;-83
2021/12/28 11:14:29;;;;;;;0.60;0.60;;;;;;;-6.26;72.33;100008.19;4861934;29;20045;-83
2021/12/28 11:16:58;;;;;;;0.73;0.73;;;;;;;-6.52;73.36;100016.16;4877581;29;20100;-86
2021/12/28 11:19:28;;;;;;;0.70;0.70;;;;;;;-6.69;74.02;100017.38;4893184;29;20655;-82
2021/12/28 11:21:57;;;;;;;0.70;0.70;;;;;;;-6.38;73.63;100012.53;4895076;29;20072;-82
2021/12/28 11:24:30;;;;;;;0.90;0.90;;;;;;;-6.20;72.90;100005.09;4894566;29;20048;-84
2021/12/28 11:26:57;;;;;;;1.00;1.00;;;;;;;-4.77;70.88;100004.69;4896004;29;20049;-85
2021/12/28 11:29:41;;;;;;;1.30;1.20;;;;;;;-3.62;67.75;99996.13;4894493;29;20084;-84
2021/12/28 11:32:20;;;;;;;1.27;1.20;;;;;;;-2.72;64.97;100005.16;4895559;29;20064;-84
2021/12/28 11:34:47;;;;;;;1.00;1.00;;;;;;;-2.17;63.66;100002.06;4894549;29;20431;-85
2021/12/28 11:37:20;;;;;;;1.38;1.27;;;;;;;-1.82;62.33;99998.84;4895479;29;20052;-85
2021/12/28 11:39:50;;;;;;;1.10;1.10;;;;;;;-1.73;61.60;100003.28;4896026;29;20423;-85